Morley, MI (49336)

7:13 AM EST on March 02, 2015 (GMT -0500)
East of Hardy Dam | Change Station
CLOSE
Current Station
Personal Weather Station
Location: Newaygo, MI
Elevation: 843 ft
Nearby Weather Stations

Elev 843 ft 43.48 °N, 85.61 °W | Updated 10 minutes ago

Partly Cloudy
Partly Cloudy
5.9 °F
Feels Like 6 °F
N
0.0
Wind Variable Wind from WSW

Today
High -- | Low -- °F
--% Chance of Precip.
Yesterday
High -- | Low -- °F
Precip. -- in
7:16 AM 6:31 PM
Waxing Gibbous, 91% visible
Pressure 30.32 in
Visibility 10.0 miles
Clouds Mostly Cloudy 3200 ft
Windchill 6 °F
Dew Point 5 °F
Humidity 95%
Rainfall 0.00 in
Snow Depth Not available.
UV 0 out of 12
Pollen .30 out of 12
Air Quality Not available.
Flu Activity Not available.
METAR KRQB 021154Z AUTO 28006KT 10SM BKN032 M09/M11 A3032 RMK AO2 T10881115 11052 21091

More Conditions Fewer Conditions

Pressure 30.32 in
Visibility 10.0 miles
Clouds Mostly Cloudy 3200 ft
Windchill 6 °F
Dew Point 5 °F
Humidity 95%
Rainfall 0.00 in
Snow Depth Not available.
UV 0 out of 12
Pollen .30 out of 12
Air Quality Not available.
Flu Activity Not available.
METAR KRQB 021154Z AUTO 28006KT 10SM BKN032 M09/M11 A3032 RMK AO2 T10881115 11052 21091

More Conditions Fewer Conditions

10-Day Weather Forecast

Almanac

Astronomy

Mar. 02, 2015 Rise Set
Actual Time
Civil Twilight
Nautical Twilight
Astronomical Twilight
Moon
Length of Visible Light
Length of Day
Tomorrow will be .
, % of the Moon is Illuminated

Today's Extremes

State Highs State Lows

Community

WunderPhotos

Upload Photos

1,801,770 photos uploaded!

WunderBlogs® & News

Nearby

Air Quality

  Air Quality AQ Index Pollutant
Not available.

Snow Depth

Station Depth Elevation

Earthquake Activity

City Distance Mag. Time & Date
Minimum magnitude displayed is 2.5.

Coastal Water Temperatures

Place Temperature

Nearby Weather Stations